sensor_id;sensor_type;location;lat;lon;timestamp;P1;durP1;ratioP1;P2;durP2;ratioP2
49962;SDS011;36180;57.678;11.910;2022-10-16T00:00:31;29.25;;;11.27;;
49962;SDS011;36180;57.678;11.910;2022-10-16T00:02:59;29.80;;;10.35;;
49962;SDS011;36180;57.678;11.910;2022-10-16T00:05:27;29.15;;;10.43;;
49962;SDS011;36180;57.678;11.910;2022-10-16T00:07:54;31.60;;;10.35;;
49962;SDS011;36180;57.678;11.910;2022-10-16T00:10:21;25.30;;;8.88;;
49962;SDS011;36180;57.678;11.910;2022-10-16T00:12:48;30.55;;;9.05;;
49962;SDS011;36180;57.678;11.910;2022-10-16T00:15:15;22.52;;;7.78;;
49962;SDS011;36180;57.678;11.910;2022-10-16T00:17:42;31.25;;;8.48;;
49962;SDS011;36180;57.678;11.910;2022-10-16T00:20:11;18.38;;;7.00;;
49962;SDS011;36180;57.678;11.910;2022-10-16T00:22:38;22.58;;;6.57;;
49962;SDS011;36180;57.678;11.910;2022-10-16T00:25:05;24.65;;;6.55;;
49962;SDS011;36180;57.678;11.910;2022-10-16T00:27:33;21.05;;;5.93;;
49962;SDS011;36180;57.678;11.910;2022-10-16T00:30:00;19.75;;;5.28;;
49962;SDS011;36180;57.678;11.910;2022-10-16T00:32:27;23.33;;;5.65;;
49962;SDS011;36180;57.678;11.910;2022-10-16T00:34:54;17.33;;;5.65;;
49962;SDS011;36180;57.678;11.910;2022-10-16T00:37:23;19.42;;;5.03;;
49962;SDS011;36180;57.678;11.910;2022-10-16T00:39:50;17.52;;;4.55;;
49962;SDS011;36180;57.678;11.910;2022-10-16T00:42:17;17.63;;;5.80;;
49962;SDS011;36180;57.678;11.910;2022-10-16T00:44:46;21.40;;;4.95;;
49962;SDS011;36180;57.678;11.910;2022-10-16T00:47:17;19.65;;;5.25;;
49962;SDS011;36180;57.678;11.910;2022-10-16T00:49:46;16.38;;;4.65;;
49962;SDS011;36180;57.678;11.910;2022-10-16T00:52:13;16.95;;;4.70;;
49962;SDS011;36180;57.678;11.910;2022-10-16T00:54:42;18.40;;;4.15;;
49962;SDS011;36180;57.678;11.910;2022-10-16T00:57:09;18.33;;;4.32;;
49962;SDS011;36180;57.678;11.910;2022-10-16T00:59:37;15.45;;;4.18;;
49962;SDS011;36180;57.678;11.910;2022-10-16T01:02:07;18.35;;;4.13;;
49962;SDS011;36180;57.678;11.910;2022-10-16T01:04:35;21.13;;;4.63;;
49962;SDS011;36180;57.678;11.910;2022-10-16T01:07:06;22.52;;;4.93;;
49962;SDS011;36180;57.678;11.910;2022-10-16T01:09:39;21.15;;;4.18;;
49962;SDS011;36180;57.678;11.910;2022-10-16T01:12:13;16.38;;;4.22;;
49962;SDS011;36180;57.678;11.910;2022-10-16T01:14:43;18.45;;;4.20;;
49962;SDS011;36180;57.678;11.910;2022-10-16T01:17:15;22.92;;;5.05;;
49962;SDS011;36180;57.678;11.910;2022-10-16T01:19:48;18.05;;;4.60;;
49962;SDS011;36180;57.678;11.910;2022-10-16T01:22:21;19.80;;;4.47;;
49962;SDS011;36180;57.678;11.910;2022-10-16T01:24:53;18.70;;;4.72;;
49962;SDS011;36180;57.678;11.910;2022-10-16T01:27:23;17.48;;;4.38;;
49962;SDS011;36180;57.678;11.910;2022-10-16T01:29:52;22.08;;;4.60;;
49962;SDS011;36180;57.678;11.910;2022-10-16T01:32:23;21.05;;;4.97;;
49962;SDS011;36180;57.678;11.910;2022-10-16T01:34:54;21.08;;;4.22;;
49962;SDS011;36180;57.678;11.910;2022-10-16T01:37:36;15.68;;;4.30;;
49962;SDS011;36180;57.678;11.910;2022-10-16T01:40:08;18.35;;;4.28;;
49962;SDS011;36180;57.678;11.910;2022-10-16T01:42:39;26.95;;;4.97;;
49962;SDS011;36180;57.678;11.910;2022-10-16T01:45:08;21.35;;;4.50;;
49962;SDS011;36180;57.678;11.910;2022-10-16T01:47:39;18.65;;;4.72;;
49962;SDS011;36180;57.678;11.910;2022-10-16T01:50:06;28.27;;;5.20;;
49962;SDS011;36180;57.678;11.910;2022-10-16T01:52:35;18.65;;;4.60;;
49962;SDS011;36180;57.678;11.910;2022-10-16T01:55:04;16.88;;;4.22;;
49962;SDS011;36180;57.678;11.910;2022-10-16T01:57:33;14.88;;;4.20;;
49962;SDS011;36180;57.678;11.910;2022-10-16T02:00:05;19.92;;;4.88;;
49962;SDS011;36180;57.678;11.910;2022-10-16T02:02:38;19.55;;;4.35;;
49962;SDS011;36180;57.678;11.910;2022-10-16T02:05:08;28.63;;;4.60;;
49962;SDS011;36180;57.678;11.910;2022-10-16T02:07:38;21.23;;;4.75;;
49962;SDS011;36180;57.678;11.910;2022-10-16T02:10:07;28.23;;;5.30;;
49962;SDS011;36180;57.678;11.910;2022-10-16T02:12:35;23.63;;;5.00;;
49962;SDS011;36180;57.678;11.910;2022-10-16T02:15:06;17.35;;;4.78;;
49962;SDS011;36180;57.678;11.910;2022-10-16T02:17:33;19.95;;;5.03;;
49962;SDS011;36180;57.678;11.910;2022-10-16T02:20:01;25.38;;;5.18;;
49962;SDS011;36180;57.678;11.910;2022-10-16T02:22:30;24.67;;;5.38;;
49962;SDS011;36180;57.678;11.910;2022-10-16T02:24:59;19.10;;;5.35;;
49962;SDS011;36180;57.678;11.910;2022-10-16T02:27:32;18.25;;;4.72;;
49962;SDS011;36180;57.678;11.910;2022-10-16T02:30:03;19.55;;;4.97;;
49962;SDS011;36180;57.678;11.910;2022-10-16T02:32:35;18.13;;;4.53;;
49962;SDS011;36180;57.678;11.910;2022-10-16T02:35:04;26.83;;;4.93;;
49962;SDS011;36180;57.678;11.910;2022-10-16T02:37:32;22.52;;;4.80;;
49962;SDS011;36180;57.678;11.910;2022-10-16T02:39:59;28.13;;;5.38;;
49962;SDS011;36180;57.678;11.910;2022-10-16T02:42:28;24.17;;;4.88;;
49962;SDS011;36180;57.678;11.910;2022-10-16T02:44:55;20.13;;;5.30;;
49962;SDS011;36180;57.678;11.910;2022-10-16T02:47:24;20.65;;;5.32;;
49962;SDS011;36180;57.678;11.910;2022-10-16T02:49:51;20.80;;;5.35;;
49962;SDS011;36180;57.678;11.910;2022-10-16T02:52:18;21.58;;;5.10;;
49962;SDS011;36180;57.678;11.910;2022-10-16T02:54:45;23.95;;;4.30;;
49962;SDS011;36180;57.678;11.910;2022-10-16T02:57:12;22.40;;;5.35;;
49962;SDS011;36180;57.678;11.910;2022-10-16T02:59:39;20.02;;;4.47;;
49962;SDS011;36180;57.678;11.910;2022-10-16T03:02:06;22.92;;;5.47;;
49962;SDS011;36180;57.678;11.910;2022-10-16T03:04:34;26.02;;;5.53;;
49962;SDS011;36180;57.678;11.910;2022-10-16T03:07:01;25.15;;;5.00;;
49962;SDS011;36180;57.678;11.910;2022-10-16T03:09:28;27.90;;;5.40;;
49962;SDS011;36180;57.678;11.910;2022-10-16T03:11:55;16.48;;;4.63;;
49962;SDS011;36180;57.678;11.910;2022-10-16T03:14:22;20.08;;;4.57;;
49962;SDS011;36180;57.678;11.910;2022-10-16T03:16:49;18.85;;;5.07;;
49962;SDS011;36180;57.678;11.910;2022-10-16T03:19:16;18.48;;;4.55;;
49962;SDS011;36180;57.678;11.910;2022-10-16T03:21:45;26.60;;;5.72;;
49962;SDS011;36180;57.678;11.910;2022-10-16T03:24:12;28.55;;;5.10;;
49962;SDS011;36180;57.678;11.910;2022-10-16T03:26:39;27.40;;;4.70;;
49962;SDS011;36180;57.678;11.910;2022-10-16T03:29:06;25.92;;;5.53;;
49962;SDS011;36180;57.678;11.910;2022-10-16T03:31:33;27.23;;;5.63;;
49962;SDS011;36180;57.678;11.910;2022-10-16T03:34:00;20.50;;;5.18;;
49962;SDS011;36180;57.678;11.910;2022-10-16T03:36:27;22.45;;;5.75;;
49962;SDS011;36180;57.678;11.910;2022-10-16T03:38:55;29.58;;;6.53;;
49962;SDS011;36180;57.678;11.910;2022-10-16T03:41:22;22.58;;;5.45;;
49962;SDS011;36180;57.678;11.910;2022-10-16T03:43:49;19.02;;;5.22;;
49962;SDS011;36180;57.678;11.910;2022-10-16T03:46:16;23.95;;;4.72;;
49962;SDS011;36180;57.678;11.910;2022-10-16T03:48:43;23.33;;;5.38;;
49962;SDS011;36180;57.678;11.910;2022-10-16T03:51:10;19.88;;;5.75;;
49962;SDS011;36180;57.678;11.910;2022-10-16T03:53:37;22.80;;;5.22;;
49962;SDS011;36180;57.678;11.910;2022-10-16T03:56:05;19.58;;;5.53;;
49962;SDS011;36180;57.678;11.910;2022-10-16T03:58:32;20.15;;;5.28;;
49962;SDS011;36180;57.678;11.910;2022-10-16T04:01:00;24.77;;;5.20;;
49962;SDS011;36180;57.678;11.910;2022-10-16T04:03:27;17.92;;;4.90;;
49962;SDS011;36180;57.678;11.910;2022-10-16T04:05:54;26.25;;;5.45;;
49962;SDS011;36180;57.678;11.910;2022-10-16T04:08:21;24.15;;;5.47;;
49962;SDS011;36180;57.678;11.910;2022-10-16T04:10:48;23.75;;;4.88;;
49962;SDS011;36180;57.678;11.910;2022-10-16T04:13:16;19.42;;;5.38;;
49962;SDS011;36180;57.678;11.910;2022-10-16T04:15:44;19.40;;;5.13;;
49962;SDS011;36180;57.678;11.910;2022-10-16T04:18:11;28.85;;;5.35;;
49962;SDS011;36180;57.678;11.910;2022-10-16T04:20:39;19.75;;;4.75;;
49962;SDS011;36180;57.678;11.910;2022-10-16T04:23:06;22.65;;;5.40;;
49962;SDS011;36180;57.678;11.910;2022-10-16T04:25:33;22.55;;;5.22;;
49962;SDS011;36180;57.678;11.910;2022-10-16T04:28:00;29.33;;;5.68;;
49962;SDS011;36180;57.678;11.910;2022-10-16T04:30:29;29.30;;;5.78;;
49962;SDS011;36180;57.678;11.910;2022-10-16T04:32:55;24.80;;;4.97;;
49962;SDS011;36180;57.678;11.910;2022-10-16T04:35:22;26.42;;;5.15;;
49962;SDS011;36180;57.678;11.910;2022-10-16T04:37:49;24.13;;;5.25;;
49962;SDS011;36180;57.678;11.910;2022-10-16T04:40:16;23.90;;;5.60;;
49962;SDS011;36180;57.678;11.910;2022-10-16T04:42:43;29.95;;;6.20;;
49962;SDS011;36180;57.678;11.910;2022-10-16T04:45:11;23.48;;;6.15;;
49962;SDS011;36180;57.678;11.910;2022-10-16T04:47:39;27.42;;;6.45;;
49962;SDS011;36180;57.678;11.910;2022-10-16T04:50:06;26.15;;;7.35;;
49962;SDS011;36180;57.678;11.910;2022-10-16T04:52:34;24.92;;;6.22;;
49962;SDS011;36180;57.678;11.910;2022-10-16T04:55:01;27.52;;;7.65;;
49962;SDS011;36180;57.678;11.910;2022-10-16T04:57:28;21.77;;;7.10;;
49962;SDS011;36180;57.678;11.910;2022-10-16T04:59:55;26.30;;;7.80;;
49962;SDS011;36180;57.678;11.910;2022-10-16T05:02:22;30.42;;;8.27;;
49962;SDS011;36180;57.678;11.910;2022-10-16T05:04:50;33.63;;;7.90;;
49962;SDS011;36180;57.678;11.910;2022-10-16T05:07:18;37.88;;;9.15;;
49962;SDS011;36180;57.678;11.910;2022-10-16T05:09:45;26.60;;;7.88;;
49962;SDS011;36180;57.678;11.910;2022-10-16T05:12:12;35.63;;;8.63;;
49962;SDS011;36180;57.678;11.910;2022-10-16T05:14:39;27.45;;;8.32;;
49962;SDS011;36180;57.678;11.910;2022-10-16T05:17:06;37.22;;;9.50;;
49962;SDS011;36180;57.678;11.910;2022-10-16T05:19:33;38.53;;;9.25;;
49962;SDS011;36180;57.678;11.910;2022-10-16T05:22:01;34.47;;;8.95;;
49962;SDS011;36180;57.678;11.910;2022-10-16T05:24:28;36.08;;;8.73;;
49962;SDS011;36180;57.678;11.910;2022-10-16T05:26:55;28.52;;;8.52;;
49962;SDS011;36180;57.678;11.910;2022-10-16T05:29:22;31.77;;;8.07;;
49962;SDS011;36180;57.678;11.910;2022-10-16T05:31:50;27.67;;;7.68;;
49962;SDS011;36180;57.678;11.910;2022-10-16T05:34:18;22.73;;;8.07;;
49962;SDS011;36180;57.678;11.910;2022-10-16T05:36:45;33.80;;;8.70;;
49962;SDS011;36180;57.678;11.910;2022-10-16T05:39:13;22.67;;;7.43;;
49962;SDS011;36180;57.678;11.910;2022-10-16T05:41:40;31.85;;;8.15;;
49962;SDS011;36180;57.678;11.910;2022-10-16T05:44:07;20.23;;;7.80;;
49962;SDS011;36180;57.678;11.910;2022-10-16T05:46:34;30.23;;;8.93;;
49962;SDS011;36180;57.678;11.910;2022-10-16T05:49:01;38.10;;;8.75;;
49962;SDS011;36180;57.678;11.910;2022-10-16T05:51:28;32.75;;;8.68;;
49962;SDS011;36180;57.678;11.910;2022-10-16T05:53:55;36.70;;;10.90;;
49962;SDS011;36180;57.678;11.910;2022-10-16T05:56:23;23.55;;;9.77;;
49962;SDS011;36180;57.678;11.910;2022-10-16T05:58:50;23.17;;;9.27;;
49962;SDS011;36180;57.678;11.910;2022-10-16T06:01:18;39.20;;;11.45;;
49962;SDS011;36180;57.678;11.910;2022-10-16T06:03:49;34.88;;;11.93;;
49962;SDS011;36180;57.678;11.910;2022-10-16T06:06:16;32.45;;;12.02;;
49962;SDS011;36180;57.678;11.910;2022-10-16T06:08:46;35.63;;;10.98;;
49962;SDS011;36180;57.678;11.910;2022-10-16T06:11:14;36.25;;;11.80;;
49962;SDS011;36180;57.678;11.910;2022-10-16T06:13:43;34.08;;;11.95;;
49962;SDS011;36180;57.678;11.910;2022-10-16T06:16:11;36.88;;;11.55;;
49962;SDS011;36180;57.678;11.910;2022-10-16T06:18:38;33.92;;;12.25;;
49962;SDS011;36180;57.678;11.910;2022-10-16T06:21:07;31.20;;;11.90;;
49962;SDS011;36180;57.678;11.910;2022-10-16T06:23:35;28.67;;;12.23;;
49962;SDS011;36180;57.678;11.910;2022-10-16T06:26:06;26.83;;;11.50;;
49962;SDS011;36180;57.678;11.910;2022-10-16T06:28:33;32.88;;;12.00;;
49962;SDS011;36180;57.678;11.910;2022-10-16T06:31:02;31.42;;;11.80;;
49962;SDS011;36180;57.678;11.910;2022-10-16T06:33:30;32.17;;;11.30;;
49962;SDS011;36180;57.678;11.910;2022-10-16T06:36:00;29.65;;;10.32;;
49962;SDS011;36180;57.678;11.910;2022-10-16T06:38:28;23.08;;;10.10;;
49962;SDS011;36180;57.678;11.910;2022-10-16T06:40:55;33.22;;;10.90;;
49962;SDS011;36180;57.678;11.910;2022-10-16T06:43:22;22.02;;;9.75;;
49962;SDS011;36180;57.678;11.910;2022-10-16T06:45:52;22.92;;;9.65;;
49962;SDS011;36180;57.678;11.910;2022-10-16T06:48:21;26.35;;;9.15;;
49962;SDS011;36180;57.678;11.910;2022-10-16T06:50:55;31.80;;;8.10;;
49962;SDS011;36180;57.678;11.910;2022-10-16T06:53:23;20.38;;;7.30;;
49962;SDS011;36180;57.678;11.910;2022-10-16T06:55:50;18.75;;;6.68;;
49962;SDS011;36180;57.678;11.910;2022-10-16T06:58:17;23.25;;;6.78;;
49962;SDS011;36180;57.678;11.910;2022-10-16T07:00:44;25.55;;;5.95;;
49962;SDS011;36180;57.678;11.910;2022-10-16T07:03:11;20.13;;;5.60;;
49962;SDS011;36180;57.678;11.910;2022-10-16T07:05:40;17.02;;;5.30;;
49962;SDS011;36180;57.678;11.910;2022-10-16T07:08:07;26.85;;;5.15;;
49962;SDS011;36180;57.678;11.910;2022-10-16T07:10:35;22.30;;;4.28;;
49962;SDS011;36180;57.678;11.910;2022-10-16T07:13:02;17.15;;;5.10;;
49962;SDS011;36180;57.678;11.910;2022-10-16T07:15:29;23.98;;;5.30;;
49962;SDS011;36180;57.678;11.910;2022-10-16T07:17:56;21.35;;;4.80;;
49962;SDS011;36180;57.678;11.910;2022-10-16T07:20:23;17.50;;;5.05;;
49962;SDS011;36180;57.678;11.910;2022-10-16T07:22:51;19.13;;;5.18;;
49962;SDS011;36180;57.678;11.910;2022-10-16T07:25:18;21.58;;;4.70;;
49962;SDS011;36180;57.678;11.910;2022-10-16T07:27:45;20.35;;;4.80;;
49962;SDS011;36180;57.678;11.910;2022-10-16T07:30:12;18.73;;;4.40;;
49962;SDS011;36180;57.678;11.910;2022-10-16T07:32:39;18.75;;;3.58;;
49962;SDS011;36180;57.678;11.910;2022-10-16T07:35:06;15.27;;;3.30;;
49962;SDS011;36180;57.678;11.910;2022-10-16T07:37:34;17.60;;;4.90;;
49962;SDS011;36180;57.678;11.910;2022-10-16T07:40:02;14.75;;;3.25;;
49962;SDS011;36180;57.678;11.910;2022-10-16T07:42:30;18.17;;;3.28;;
49962;SDS011;36180;57.678;11.910;2022-10-16T07:44:57;21.17;;;4.07;;
49962;SDS011;36180;57.678;11.910;2022-10-16T07:47:24;20.50;;;3.67;;
49962;SDS011;36180;57.678;11.910;2022-10-16T07:49:51;15.73;;;3.38;;
49962;SDS011;36180;57.678;11.910;2022-10-16T07:52:18;20.83;;;4.10;;
49962;SDS011;36180;57.678;11.910;2022-10-16T07:54:45;23.85;;;3.95;;
49962;SDS011;36180;57.678;11.910;2022-10-16T07:57:13;24.58;;;3.92;;
49962;SDS011;36180;57.678;11.910;2022-10-16T07:59:44;19.70;;;4.32;;
49962;SDS011;36180;57.678;11.910;2022-10-16T08:02:11;19.08;;;4.32;;
49962;SDS011;36180;57.678;11.910;2022-10-16T08:04:38;22.55;;;4.50;;
49962;SDS011;36180;57.678;11.910;2022-10-16T08:07:06;20.88;;;4.60;;
49962;SDS011;36180;57.678;11.910;2022-10-16T08:09:33;13.70;;;3.95;;
49962;SDS011;36180;57.678;11.910;2022-10-16T08:12:00;19.55;;;4.32;;
49962;SDS011;36180;57.678;11.910;2022-10-16T08:14:30;20.45;;;4.40;;
49962;SDS011;36180;57.678;11.910;2022-10-16T08:16:57;24.67;;;5.15;;
49962;SDS011;36180;57.678;11.910;2022-10-16T08:19:24;24.70;;;4.90;;
49962;SDS011;36180;57.678;11.910;2022-10-16T08:21:51;18.88;;;4.05;;
49962;SDS011;36180;57.678;11.910;2022-10-16T08:24:18;20.70;;;4.80;;
49962;SDS011;36180;57.678;11.910;2022-10-16T08:26:45;19.02;;;4.40;;
49962;SDS011;36180;57.678;11.910;2022-10-16T08:29:13;25.95;;;4.45;;
49962;SDS011;36180;57.678;11.910;2022-10-16T08:31:41;27.63;;;5.03;;
49962;SDS011;36180;57.678;11.910;2022-10-16T08:34:08;19.52;;;4.43;;
49962;SDS011;36180;57.678;11.910;2022-10-16T08:36:35;21.90;;;4.63;;
49962;SDS011;36180;57.678;11.910;2022-10-16T08:39:03;29.10;;;4.35;;
49962;SDS011;36180;57.678;11.910;2022-10-16T08:46:55;17.13;;;3.40;;
49962;SDS011;36180;57.678;11.910;2022-10-16T08:49:29;24.52;;;4.18;;
49962;SDS011;36180;57.678;11.910;2022-10-16T08:51:56;27.50;;;4.55;;
49962;SDS011;36180;57.678;11.910;2022-10-16T08:54:27;25.15;;;4.15;;
49962;SDS011;36180;57.678;11.910;2022-10-16T08:56:56;19.65;;;3.33;;
49962;SDS011;36180;57.678;11.910;2022-10-16T08:59:23;25.75;;;3.38;;
49962;SDS011;36180;57.678;11.910;2022-10-16T09:01:50;22.38;;;3.88;;
49962;SDS011;36180;57.678;11.910;2022-10-16T09:04:35;27.52;;;4.75;;
49962;SDS011;36180;57.678;11.910;2022-10-16T09:07:18;24.50;;;4.07;;
49962;SDS011;36180;57.678;11.910;2022-10-16T09:09:54;23.05;;;4.50;;
49962;SDS011;36180;57.678;11.910;2022-10-16T09:12:28;19.13;;;4.07;;
49962;SDS011;36180;57.678;11.910;2022-10-16T09:15:02;26.27;;;4.97;;
49962;SDS011;36180;57.678;11.910;2022-10-16T09:17:41;32.70;;;4.57;;
49962;SDS011;36180;57.678;11.910;2022-10-16T09:20:26;26.73;;;4.47;;
49962;SDS011;36180;57.678;11.910;2022-10-16T09:22:59;25.40;;;4.10;;
49962;SDS011;36180;57.678;11.910;2022-10-16T09:25:41;24.63;;;3.63;;
49962;SDS011;36180;57.678;11.910;2022-10-16T09:28:10;23.25;;;4.00;;
49962;SDS011;36180;57.678;11.910;2022-10-16T09:30:37;24.08;;;3.95;;
49962;SDS011;36180;57.678;11.910;2022-10-16T09:33:04;25.38;;;4.75;;
49962;SDS011;36180;57.678;11.910;2022-10-16T09:35:35;22.40;;;4.45;;
49962;SDS011;36180;57.678;11.910;2022-10-16T09:38:04;19.70;;;3.63;;
49962;SDS011;36180;57.678;11.910;2022-10-16T09:40:32;22.70;;;3.30;;
49962;SDS011;36180;57.678;11.910;2022-10-16T09:43:02;23.95;;;3.63;;
49962;SDS011;36180;57.678;11.910;2022-10-16T09:45:33;26.80;;;4.10;;
49962;SDS011;36180;57.678;11.910;2022-10-16T09:48:01;23.48;;;4.53;;
49962;SDS011;36180;57.678;11.910;2022-10-16T09:50:38;30.00;;;3.75;;
49962;SDS011;36180;57.678;11.910;2022-10-16T09:53:07;22.08;;;4.13;;
49962;SDS011;36180;57.678;11.910;2022-10-16T09:55:47;25.15;;;4.28;;
49962;SDS011;36180;57.678;11.910;2022-10-16T09:58:14;25.33;;;4.30;;
49962;SDS011;36180;57.678;11.910;2022-10-16T10:00:41;26.05;;;4.63;;
49962;SDS011;36180;57.678;11.910;2022-10-16T10:03:15;20.33;;;3.50;;
49962;SDS011;36180;57.678;11.910;2022-10-16T10:06:05;21.90;;;3.45;;
49962;SDS011;36180;57.678;11.910;2022-10-16T10:08:51;21.40;;;4.00;;
49962;SDS011;36180;57.678;11.910;2022-10-16T10:11:41;28.98;;;4.32;;
49962;SDS011;36180;57.678;11.910;2022-10-16T10:14:17;21.95;;;3.85;;
49962;SDS011;36180;57.678;11.910;2022-10-16T10:16:49;23.92;;;3.90;;
49962;SDS011;36180;57.678;11.910;2022-10-16T10:19:17;22.50;;;3.85;;
49962;SDS011;36180;57.678;11.910;2022-10-16T10:21:47;20.73;;;3.75;;
49962;SDS011;36180;57.678;11.910;2022-10-16T10:24:15;23.02;;;3.88;;
49962;SDS011;36180;57.678;11.910;2022-10-16T10:26:45;22.58;;;4.50;;
49962;SDS011;36180;57.678;11.910;2022-10-16T10:29:18;26.98;;;4.05;;
49962;SDS011;36180;57.678;11.910;2022-10-16T10:31:54;23.33;;;3.90;;
49962;SDS011;36180;57.678;11.910;2022-10-16T10:34:32;25.67;;;3.95;;
49962;SDS011;36180;57.678;11.910;2022-10-16T10:37:09;29.00;;;4.22;;
49962;SDS011;36180;57.678;11.910;2022-10-16T10:39:49;24.92;;;3.45;;
49962;SDS011;36180;57.678;11.910;2022-10-16T10:42:21;26.02;;;4.45;;
49962;SDS011;36180;57.678;11.910;2022-10-16T10:44:56;21.70;;;4.28;;
49962;SDS011;36180;57.678;11.910;2022-10-16T10:47:33;21.35;;;4.00;;
49962;SDS011;36180;57.678;11.910;2022-10-16T10:50:07;27.58;;;3.83;;
49962;SDS011;36180;57.678;11.910;2022-10-16T10:52:47;16.23;;;3.35;;
49962;SDS011;36180;57.678;11.910;2022-10-16T10:55:29;27.45;;;3.92;;
49962;SDS011;36180;57.678;11.910;2022-10-16T10:58:04;31.00;;;5.32;;
49962;SDS011;36180;57.678;11.910;2022-10-16T11:00:47;27.77;;;5.68;;
49962;SDS011;36180;57.678;11.910;2022-10-16T11:03:23;38.53;;;6.15;;
49962;SDS011;36180;57.678;11.910;2022-10-16T11:05:58;27.38;;;6.55;;
49962;SDS011;36180;57.678;11.910;2022-10-16T11:08:29;35.20;;;6.07;;
49962;SDS011;36180;57.678;11.910;2022-10-16T11:11:00;27.85;;;5.47;;
49962;SDS011;36180;57.678;11.910;2022-10-16T11:13:30;35.70;;;6.82;;
49962;SDS011;36180;57.678;11.910;2022-10-16T11:15:59;25.08;;;5.63;;
49962;SDS011;36180;57.678;11.910;2022-10-16T11:18:30;34.70;;;6.07;;
49962;SDS011;36180;57.678;11.910;2022-10-16T11:21:01;30.25;;;5.55;;
49962;SDS011;36180;57.678;11.910;2022-10-16T11:23:33;21.55;;;4.95;;
49962;SDS011;36180;57.678;11.910;2022-10-16T11:26:06;28.60;;;4.55;;
49962;SDS011;36180;57.678;11.910;2022-10-16T11:28:39;28.58;;;5.32;;
49962;SDS011;36180;57.678;11.910;2022-10-16T11:31:11;24.83;;;4.90;;
49962;SDS011;36180;57.678;11.910;2022-10-16T11:33:43;29.55;;;4.70;;
49962;SDS011;36180;57.678;11.910;2022-10-16T11:36:14;23.90;;;4.95;;
49962;SDS011;36180;57.678;11.910;2022-10-16T11:38:48;19.98;;;4.28;;
49962;SDS011;36180;57.678;11.910;2022-10-16T11:41:20;23.95;;;4.97;;
49962;SDS011;36180;57.678;11.910;2022-10-16T11:43:52;24.67;;;4.35;;
49962;SDS011;36180;57.678;11.910;2022-10-16T11:46:26;32.88;;;4.82;;
49962;SDS011;36180;57.678;11.910;2022-10-16T11:48:55;28.02;;;5.68;;
49962;SDS011;36180;57.678;11.910;2022-10-16T11:51:29;29.40;;;4.00;;
49962;SDS011;36180;57.678;11.910;2022-10-16T11:54:03;18.30;;;3.97;;
49962;SDS011;36180;57.678;11.910;2022-10-16T11:56:35;27.40;;;3.78;;
49962;SDS011;36180;57.678;11.910;2022-10-16T11:59:05;13.90;;;2.08;;
49962;SDS011;36180;57.678;11.910;2022-10-16T12:01:36;20.88;;;2.88;;
49962;SDS011;36180;57.678;11.910;2022-10-16T12:04:07;39.55;;;4.45;;
49962;SDS011;36180;57.678;11.910;2022-10-16T12:06:42;54.28;;;6.10;;
49962;SDS011;36180;57.678;11.910;2022-10-16T12:09:15;45.35;;;4.90;;
49962;SDS011;36180;57.678;11.910;2022-10-16T12:11:44;44.15;;;4.45;;
49962;SDS011;36180;57.678;11.910;2022-10-16T12:14:19;43.05;;;5.00;;
49962;SDS011;36180;57.678;11.910;2022-10-16T12:16:52;32.90;;;4.28;;
49962;SDS011;36180;57.678;11.910;2022-10-16T12:19:21;38.28;;;5.05;;
49962;SDS011;36180;57.678;11.910;2022-10-16T12:21:50;26.50;;;3.55;;
49962;SDS011;36180;57.678;11.910;2022-10-16T12:24:29;29.85;;;3.80;;
49962;SDS011;36180;57.678;11.910;2022-10-16T12:27:01;26.50;;;2.97;;
49962;SDS011;36180;57.678;11.910;2022-10-16T12:29:32;36.75;;;3.63;;
49962;SDS011;36180;57.678;11.910;2022-10-16T12:32:00;28.33;;;4.30;;
49962;SDS011;36180;57.678;11.910;2022-10-16T12:34:29;37.00;;;4.47;;
49962;SDS011;36180;57.678;11.910;2022-10-16T12:37:09;30.05;;;4.22;;
49962;SDS011;36180;57.678;11.910;2022-10-16T12:39:40;35.33;;;3.90;;
49962;SDS011;36180;57.678;11.910;2022-10-16T12:42:19;30.23;;;3.72;;
49962;SDS011;36180;57.678;11.910;2022-10-16T12:44:48;24.10;;;3.53;;
49962;SDS011;36180;57.678;11.910;2022-10-16T12:47:19;25.17;;;3.47;;
49962;SDS011;36180;57.678;11.910;2022-10-16T12:52:27;21.30;;;2.47;;
49962;SDS011;36180;57.678;11.910;2022-10-16T12:55:02;24.60;;;2.83;;
49962;SDS011;36180;57.678;11.910;2022-10-16T12:57:39;21.95;;;3.25;;
49962;SDS011;36180;57.678;11.910;2022-10-16T13:00:24;23.83;;;3.35;;
49962;SDS011;36180;57.678;11.910;2022-10-16T13:03:00;22.02;;;3.38;;
49962;SDS011;36180;57.678;11.910;2022-10-16T13:05:48;20.92;;;3.35;;
49962;SDS011;36180;57.678;11.910;2022-10-16T13:08:24;19.48;;;2.70;;
49962;SDS011;36180;57.678;11.910;2022-10-16T13:11:05;12.93;;;2.15;;
49962;SDS011;36180;57.678;11.910;2022-10-16T13:13:39;14.95;;;2.85;;
49962;SDS011;36180;57.678;11.910;2022-10-16T13:16:16;14.60;;;2.70;;
49962;SDS011;36180;57.678;11.910;2022-10-16T13:18:49;19.67;;;3.00;;
49962;SDS011;36180;57.678;11.910;2022-10-16T13:21:26;16.33;;;2.50;;
49962;SDS011;36180;57.678;11.910;2022-10-16T13:23:59;15.23;;;2.28;;
49962;SDS011;36180;57.678;11.910;2022-10-16T13:26:33;17.75;;;3.00;;
49962;SDS011;36180;57.678;11.910;2022-10-16T13:29:03;16.00;;;2.97;;
49962;SDS011;36180;57.678;11.910;2022-10-16T13:31:30;15.98;;;3.08;;
49962;SDS011;36180;57.678;11.910;2022-10-16T13:33:59;19.52;;;2.40;;
49962;SDS011;36180;57.678;11.910;2022-10-16T13:36:28;13.18;;;2.63;;
49962;SDS011;36180;57.678;11.910;2022-10-16T13:39:00;17.33;;;2.70;;
49962;SDS011;36180;57.678;11.910;2022-10-16T13:41:37;15.82;;;2.80;;
49962;SDS011;36180;57.678;11.910;2022-10-16T13:44:04;12.65;;;3.00;;
49962;SDS011;36180;57.678;11.910;2022-10-16T13:46:34;20.27;;;2.90;;
49962;SDS011;36180;57.678;11.910;2022-10-16T13:49:01;16.67;;;3.45;;
49962;SDS011;36180;57.678;11.910;2022-10-16T13:51:30;18.60;;;2.85;;
49962;SDS011;36180;57.678;11.910;2022-10-16T13:53:58;16.30;;;3.13;;
49962;SDS011;36180;57.678;11.910;2022-10-16T13:56:25;21.88;;;2.90;;
49962;SDS011;36180;57.678;11.910;2022-10-16T13:59:02;14.23;;;2.83;;
49962;SDS011;36180;57.678;11.910;2022-10-16T14:01:30;17.80;;;3.00;;
49962;SDS011;36180;57.678;11.910;2022-10-16T14:04:02;18.30;;;2.65;;
49962;SDS011;36180;57.678;11.910;2022-10-16T14:06:31;17.92;;;2.60;;
49962;SDS011;36180;57.678;11.910;2022-10-16T14:08:59;15.45;;;2.55;;
49962;SDS011;36180;57.678;11.910;2022-10-16T14:11:31;18.75;;;3.20;;
49962;SDS011;36180;57.678;11.910;2022-10-16T14:13:58;23.08;;;3.13;;
49962;SDS011;36180;57.678;11.910;2022-10-16T14:16:28;17.45;;;3.17;;
49962;SDS011;36180;57.678;11.910;2022-10-16T14:18:57;21.05;;;2.90;;
49962;SDS011;36180;57.678;11.910;2022-10-16T14:21:25;20.77;;;3.28;;
49962;SDS011;36180;57.678;11.910;2022-10-16T14:23:53;20.88;;;2.83;;
49962;SDS011;36180;57.678;11.910;2022-10-16T14:26:22;18.77;;;3.03;;
49962;SDS011;36180;57.678;11.910;2022-10-16T14:29:01;21.30;;;2.72;;
49962;SDS011;36180;57.678;11.910;2022-10-16T14:31:32;13.43;;;2.88;;
49962;SDS011;36180;57.678;11.910;2022-10-16T14:34:01;18.92;;;3.22;;
49962;SDS011;36180;57.678;11.910;2022-10-16T14:36:29;21.48;;;3.00;;
49962;SDS011;36180;57.678;11.910;2022-10-16T14:38:58;11.88;;;2.67;;
49962;SDS011;36180;57.678;11.910;2022-10-16T14:41:27;16.70;;;3.22;;
49962;SDS011;36180;57.678;11.910;2022-10-16T14:43:55;15.18;;;3.10;;